sensor_id;sensor_type;location;lat;lon;timestamp;temperature;humidity
11666;DHT22;5889;51.350;6.708;2022-11-15T00:02:01;10.70;99.90
11666;DHT22;5889;51.350;6.708;2022-11-15T00:04:31;10.70;99.90
11666;DHT22;5889;51.350;6.708;2022-11-15T00:06:58;10.70;99.90
11666;DHT22;5889;51.350;6.708;2022-11-15T00:09:25;10.80;99.90
11666;DHT22;5889;51.350;6.708;2022-11-15T00:11:52;10.80;99.90
11666;DHT22;5889;51.350;6.708;2022-11-15T00:14:19;10.80;99.90
11666;DHT22;5889;51.350;6.708;2022-11-15T00:16:46;10.80;99.90
11666;DHT22;5889;51.350;6.708;2022-11-15T00:19:13;10.80;99.90
11666;DHT22;5889;51.350;6.708;2022-11-15T00:21:41;10.80;99.90
11666;DHT22;5889;51.350;6.708;2022-11-15T00:24:08;10.80;99.90
11666;DHT22;5889;51.350;6.708;2022-11-15T00:26:35;10.90;99.90
11666;DHT22;5889;51.350;6.708;2022-11-15T00:29:02;10.90;99.90
11666;DHT22;5889;51.350;6.708;2022-11-15T00:31:29;10.90;99.90
11666;DHT22;5889;51.350;6.708;2022-11-15T00:33:55;10.90;99.90
11666;DHT22;5889;51.350;6.708;2022-11-15T00:36:22;11.00;99.90
11666;DHT22;5889;51.350;6.708;2022-11-15T00:38:51;11.00;99.90
11666;DHT22;5889;51.350;6.708;2022-11-15T00:41:18;11.00;99.90
11666;DHT22;5889;51.350;6.708;2022-11-15T00:43:44;11.00;99.90
11666;DHT22;5889;51.350;6.708;2022-11-15T00:46:11;11.00;99.90
11666;DHT22;5889;51.350;6.708;2022-11-15T00:48:38;11.10;99.90
11666;DHT22;5889;51.350;6.708;2022-11-15T00:51:05;11.10;99.90
11666;DHT22;5889;51.350;6.708;2022-11-15T00:53:32;11.10;99.90
11666;DHT22;5889;51.350;6.708;2022-11-15T00:56:00;11.20;99.90
11666;DHT22;5889;51.350;6.708;2022-11-15T00:58:27;11.20;99.90
11666;DHT22;5889;51.350;6.708;2022-11-15T01:00:54;11.20;99.90
11666;DHT22;5889;51.350;6.708;2022-11-15T01:03:21;11.20;99.90
11666;DHT22;5889;51.350;6.708;2022-11-15T01:05:48;11.20;99.90
11666;DHT22;5889;51.350;6.708;2022-11-15T01:08:15;11.30;99.90
11666;DHT22;5889;51.350;6.708;2022-11-15T01:10:42;11.30;99.90
11666;DHT22;5889;51.350;6.708;2022-11-15T01:13:11;11.30;99.90
11666;DHT22;5889;51.350;6.708;2022-11-15T01:15:39;11.30;99.90
11666;DHT22;5889;51.350;6.708;2022-11-15T01:18:06;11.40;99.90
11666;DHT22;5889;51.350;6.708;2022-11-15T01:20:34;11.40;99.90
11666;DHT22;5889;51.350;6.708;2022-11-15T01:23:00;11.40;99.90
11666;DHT22;5889;51.350;6.708;2022-11-15T01:25:27;11.40;99.90
11666;DHT22;5889;51.350;6.708;2022-11-15T01:27:54;11.40;99.90
11666;DHT22;5889;51.350;6.708;2022-11-15T01:30:23;11.50;99.90
11666;DHT22;5889;51.350;6.708;2022-11-15T01:32:49;11.50;99.90
11666;DHT22;5889;51.350;6.708;2022-11-15T01:35:16;11.50;99.90
11666;DHT22;5889;51.350;6.708;2022-11-15T01:37:43;11.50;99.90
11666;DHT22;5889;51.350;6.708;2022-11-15T01:40:10;11.50;99.90
11666;DHT22;5889;51.350;6.708;2022-11-15T01:42:37;11.50;99.90
11666;DHT22;5889;51.350;6.708;2022-11-15T01:45:05;11.60;99.90
11666;DHT22;5889;51.350;6.708;2022-11-15T01:47:37;11.60;99.90
11666;DHT22;5889;51.350;6.708;2022-11-15T01:50:10;11.60;99.90
11666;DHT22;5889;51.350;6.708;2022-11-15T01:52:39;11.60;99.90
11666;DHT22;5889;51.350;6.708;2022-11-15T01:55:09;11.60;99.90
11666;DHT22;5889;51.350;6.708;2022-11-15T01:57:37;11.60;99.90
11666;DHT22;5889;51.350;6.708;2022-11-15T02:00:05;11.60;99.90
11666;DHT22;5889;51.350;6.708;2022-11-15T02:02:36;11.60;99.90
11666;DHT22;5889;51.350;6.708;2022-11-15T02:05:05;11.60;99.90
11666;DHT22;5889;51.350;6.708;2022-11-15T02:07:34;11.70;99.90
11666;DHT22;5889;51.350;6.708;2022-11-15T02:10:06;11.70;99.90
11666;DHT22;5889;51.350;6.708;2022-11-15T02:12:34;11.70;99.90
11666;DHT22;5889;51.350;6.708;2022-11-15T02:15:02;11.70;99.90
11666;DHT22;5889;51.350;6.708;2022-11-15T02:17:48;11.70;99.90
11666;DHT22;5889;51.350;6.708;2022-11-15T02:20:38;11.70;99.90
11666;DHT22;5889;51.350;6.708;2022-11-15T02:23:28;11.70;99.90
11666;DHT22;5889;51.350;6.708;2022-11-15T02:26:18;11.70;99.90
11666;DHT22;5889;51.350;6.708;2022-11-15T02:28:59;11.70;99.90
11666;DHT22;5889;51.350;6.708;2022-11-15T02:31:33;11.80;99.90
11666;DHT22;5889;51.350;6.708;2022-11-15T02:34:06;11.80;99.90
11666;DHT22;5889;51.350;6.708;2022-11-15T02:36:41;11.80;99.90
11666;DHT22;5889;51.350;6.708;2022-11-15T02:39:15;11.80;99.90
11666;DHT22;5889;51.350;6.708;2022-11-15T02:41:49;11.80;99.90
11666;DHT22;5889;51.350;6.708;2022-11-15T02:44:24;11.90;99.90
11666;DHT22;5889;51.350;6.708;2022-11-15T02:46:54;11.90;99.90
11666;DHT22;5889;51.350;6.708;2022-11-15T02:49:41;11.90;99.90
11666;DHT22;5889;51.350;6.708;2022-11-15T02:52:14;11.90;99.90
11666;DHT22;5889;51.350;6.708;2022-11-15T02:54:41;11.90;99.90
11666;DHT22;5889;51.350;6.708;2022-11-15T02:57:12;11.90;99.90
11666;DHT22;5889;51.350;6.708;2022-11-15T03:00:03;12.00;99.90
11666;DHT22;5889;51.350;6.708;2022-11-15T03:02:47;12.00;99.90
11666;DHT22;5889;51.350;6.708;2022-11-15T03:05:25;12.00;99.90
11666;DHT22;5889;51.350;6.708;2022-11-15T03:07:58;12.00;99.90
11666;DHT22;5889;51.350;6.708;2022-11-15T03:10:35;12.10;99.90
11666;DHT22;5889;51.350;6.708;2022-11-15T03:13:11;12.10;99.90
11666;DHT22;5889;51.350;6.708;2022-11-15T03:15:46;12.10;99.90
11666;DHT22;5889;51.350;6.708;2022-11-15T03:18:22;12.10;99.90
11666;DHT22;5889;51.350;6.708;2022-11-15T03:20:51;12.10;99.90
11666;DHT22;5889;51.350;6.708;2022-11-15T03:23:18;12.10;99.90
11666;DHT22;5889;51.350;6.708;2022-11-15T03:25:48;12.20;99.90
11666;DHT22;5889;51.350;6.708;2022-11-15T03:28:18;12.20;99.90
11666;DHT22;5889;51.350;6.708;2022-11-15T03:30:48;12.20;99.90
11666;DHT22;5889;51.350;6.708;2022-11-15T03:33:17;12.30;99.90
11666;DHT22;5889;51.350;6.708;2022-11-15T03:35:45;12.30;99.90
11666;DHT22;5889;51.350;6.708;2022-11-15T03:38:17;12.30;99.90
11666;DHT22;5889;51.350;6.708;2022-11-15T03:40:51;12.30;99.90
11666;DHT22;5889;51.350;6.708;2022-11-15T03:43:28;12.30;99.90
11666;DHT22;5889;51.350;6.708;2022-11-15T03:46:00;12.30;99.90
11666;DHT22;5889;51.350;6.708;2022-11-15T03:48:33;12.40;99.90
11666;DHT22;5889;51.350;6.708;2022-11-15T03:51:03;12.40;99.90
11666;DHT22;5889;51.350;6.708;2022-11-15T03:53:30;12.40;99.90
11666;DHT22;5889;51.350;6.708;2022-11-15T03:55:58;12.40;99.90
11666;DHT22;5889;51.350;6.708;2022-11-15T03:58:24;12.40;99.90
11666;DHT22;5889;51.350;6.708;2022-11-15T04:00:51;12.40;99.90
11666;DHT22;5889;51.350;6.708;2022-11-15T04:03:18;12.50;99.90
11666;DHT22;5889;51.350;6.708;2022-11-15T04:05:46;12.50;99.90
11666;DHT22;5889;51.350;6.708;2022-11-15T04:08:13;12.50;99.90
11666;DHT22;5889;51.350;6.708;2022-11-15T04:10:40;12.50;99.90
11666;DHT22;5889;51.350;6.708;2022-11-15T04:13:07;12.50;99.90
11666;DHT22;5889;51.350;6.708;2022-11-15T04:15:35;12.60;99.90
11666;DHT22;5889;51.350;6.708;2022-11-15T04:18:02;12.60;99.90
11666;DHT22;5889;51.350;6.708;2022-11-15T04:20:30;12.60;99.90
11666;DHT22;5889;51.350;6.708;2022-11-15T04:23:17;12.60;99.90
11666;DHT22;5889;51.350;6.708;2022-11-15T04:26:03;12.60;99.90
11666;DHT22;5889;51.350;6.708;2022-11-15T04:28:30;12.60;99.90
11666;DHT22;5889;51.350;6.708;2022-11-15T04:30:57;12.60;99.90
11666;DHT22;5889;51.350;6.708;2022-11-15T04:33:24;12.60;99.90
11666;DHT22;5889;51.350;6.708;2022-11-15T04:35:51;12.60;99.90
11666;DHT22;5889;51.350;6.708;2022-11-15T04:38:37;12.70;99.90
11666;DHT22;5889;51.350;6.708;2022-11-15T04:41:04;12.70;99.90
11666;DHT22;5889;51.350;6.708;2022-11-15T04:43:31;12.60;99.90
11666;DHT22;5889;51.350;6.708;2022-11-15T04:45:57;12.60;99.90
11666;DHT22;5889;51.350;6.708;2022-11-15T04:48:24;12.70;99.90
11666;DHT22;5889;51.350;6.708;2022-11-15T04:50:51;12.70;99.90
11666;DHT22;5889;51.350;6.708;2022-11-15T04:53:18;12.70;99.90
11666;DHT22;5889;51.350;6.708;2022-11-15T04:55:47;12.70;99.90
11666;DHT22;5889;51.350;6.708;2022-11-15T04:58:14;12.70;99.90
11666;DHT22;5889;51.350;6.708;2022-11-15T05:00:40;12.70;99.90
11666;DHT22;5889;51.350;6.708;2022-11-15T05:03:09;12.70;99.90
11666;DHT22;5889;51.350;6.708;2022-11-15T05:05:54;12.70;99.90
11666;DHT22;5889;51.350;6.708;2022-11-15T05:08:21;12.70;99.90
11666;DHT22;5889;51.350;6.708;2022-11-15T05:10:49;12.70;99.90
11666;DHT22;5889;51.350;6.708;2022-11-15T05:13:16;12.70;99.90
11666;DHT22;5889;51.350;6.708;2022-11-15T05:15:43;12.70;99.90
11666;DHT22;5889;51.350;6.708;2022-11-15T05:18:11;12.70;99.90
11666;DHT22;5889;51.350;6.708;2022-11-15T05:20:37;12.70;99.90
11666;DHT22;5889;51.350;6.708;2022-11-15T05:23:04;12.70;99.90
11666;DHT22;5889;51.350;6.708;2022-11-15T05:25:31;12.80;99.90
11666;DHT22;5889;51.350;6.708;2022-11-15T05:27:59;12.70;99.90
11666;DHT22;5889;51.350;6.708;2022-11-15T05:30:26;12.70;99.90
11666;DHT22;5889;51.350;6.708;2022-11-15T05:32:53;12.70;99.90
11666;DHT22;5889;51.350;6.708;2022-11-15T05:35:27;12.70;99.90
11666;DHT22;5889;51.350;6.708;2022-11-15T05:37:55;12.70;99.90
11666;DHT22;5889;51.350;6.708;2022-11-15T05:40:22;12.70;99.90
11666;DHT22;5889;51.350;6.708;2022-11-15T05:42:49;12.70;99.90
11666;DHT22;5889;51.350;6.708;2022-11-15T05:45:17;12.70;99.90
11666;DHT22;5889;51.350;6.708;2022-11-15T05:47:44;12.70;99.90
11666;DHT22;5889;51.350;6.708;2022-11-15T05:50:13;12.70;99.90
11666;DHT22;5889;51.350;6.708;2022-11-15T05:52:41;12.80;99.90
11666;DHT22;5889;51.350;6.708;2022-11-15T05:55:09;12.70;99.90
11666;DHT22;5889;51.350;6.708;2022-11-15T05:57:36;12.70;99.90
11666;DHT22;5889;51.350;6.708;2022-11-15T06:00:04;12.70;99.90
11666;DHT22;5889;51.350;6.708;2022-11-15T06:02:33;12.70;99.90
11666;DHT22;5889;51.350;6.708;2022-11-15T06:05:00;12.70;99.90
11666;DHT22;5889;51.350;6.708;2022-11-15T06:07:28;12.70;99.90
11666;DHT22;5889;51.350;6.708;2022-11-15T06:09:55;12.70;99.90
11666;DHT22;5889;51.350;6.708;2022-11-15T06:12:22;12.70;99.90
11666;DHT22;5889;51.350;6.708;2022-11-15T06:14:49;12.70;99.90
11666;DHT22;5889;51.350;6.708;2022-11-15T06:17:16;12.70;99.90
11666;DHT22;5889;51.350;6.708;2022-11-15T06:19:44;12.70;99.90
11666;DHT22;5889;51.350;6.708;2022-11-15T06:22:11;12.70;99.90
11666;DHT22;5889;51.350;6.708;2022-11-15T06:24:38;12.70;99.90
11666;DHT22;5889;51.350;6.708;2022-11-15T06:27:04;12.70;99.90
11666;DHT22;5889;51.350;6.708;2022-11-15T06:29:31;12.70;99.90
11666;DHT22;5889;51.350;6.708;2022-11-15T06:31:58;12.70;99.90
11666;DHT22;5889;51.350;6.708;2022-11-15T06:34:25;12.70;99.90
11666;DHT22;5889;51.350;6.708;2022-11-15T06:36:53;12.70;99.90
11666;DHT22;5889;51.350;6.708;2022-11-15T06:39:20;12.70;99.90
11666;DHT22;5889;51.350;6.708;2022-11-15T06:41:47;12.70;99.90
11666;DHT22;5889;51.350;6.708;2022-11-15T06:44:14;12.70;99.90
11666;DHT22;5889;51.350;6.708;2022-11-15T06:46:42;12.70;99.90
11666;DHT22;5889;51.350;6.708;2022-11-15T06:49:08;12.70;99.90
11666;DHT22;5889;51.350;6.708;2022-11-15T06:51:35;12.60;99.90
11666;DHT22;5889;51.350;6.708;2022-11-15T06:54:04;12.70;99.90
11666;DHT22;5889;51.350;6.708;2022-11-15T06:56:31;12.70;99.90
11666;DHT22;5889;51.350;6.708;2022-11-15T06:58:58;12.70;99.90
11666;DHT22;5889;51.350;6.708;2022-11-15T07:01:24;12.70;99.90
11666;DHT22;5889;51.350;6.708;2022-11-15T07:03:51;12.70;99.90
11666;DHT22;5889;51.350;6.708;2022-11-15T07:06:18;12.80;99.90
11666;DHT22;5889;51.350;6.708;2022-11-15T07:08:45;12.80;99.90
11666;DHT22;5889;51.350;6.708;2022-11-15T07:11:13;12.80;99.90
11666;DHT22;5889;51.350;6.708;2022-11-15T07:13:40;12.80;99.90
11666;DHT22;5889;51.350;6.708;2022-11-15T07:16:09;12.80;99.90
11666;DHT22;5889;51.350;6.708;2022-11-15T07:18:37;12.80;99.90
11666;DHT22;5889;51.350;6.708;2022-11-15T07:21:06;12.80;99.90
11666;DHT22;5889;51.350;6.708;2022-11-15T07:23:35;12.90;99.90
11666;DHT22;5889;51.350;6.708;2022-11-15T07:26:03;12.90;99.90
11666;DHT22;5889;51.350;6.708;2022-11-15T07:28:31;12.90;99.90
11666;DHT22;5889;51.350;6.708;2022-11-15T07:31:01;12.90;99.90
11666;DHT22;5889;51.350;6.708;2022-11-15T07:33:28;12.90;99.90
11666;DHT22;5889;51.350;6.708;2022-11-15T07:35:58;12.90;99.90
11666;DHT22;5889;51.350;6.708;2022-11-15T07:38:27;12.90;99.90
11666;DHT22;5889;51.350;6.708;2022-11-15T07:40:56;12.90;99.90
11666;DHT22;5889;51.350;6.708;2022-11-15T07:43:24;12.90;99.90
11666;DHT22;5889;51.350;6.708;2022-11-15T07:45:54;12.80;99.90
11666;DHT22;5889;51.350;6.708;2022-11-15T07:48:21;12.80;99.90
11666;DHT22;5889;51.350;6.708;2022-11-15T07:50:48;12.80;99.90
11666;DHT22;5889;51.350;6.708;2022-11-15T07:53:15;12.70;99.90
11666;DHT22;5889;51.350;6.708;2022-11-15T07:55:42;12.60;99.90
11666;DHT22;5889;51.350;6.708;2022-11-15T07:58:10;12.40;99.90
11666;DHT22;5889;51.350;6.708;2022-11-15T08:00:37;12.30;99.90
11666;DHT22;5889;51.350;6.708;2022-11-15T08:03:08;12.20;99.90
11666;DHT22;5889;51.350;6.708;2022-11-15T08:05:36;12.20;99.90
11666;DHT22;5889;51.350;6.708;2022-11-15T08:08:04;12.10;99.90
11666;DHT22;5889;51.350;6.708;2022-11-15T08:10:31;12.10;99.90
11666;DHT22;5889;51.350;6.708;2022-11-15T08:12:59;12.10;99.90
11666;DHT22;5889;51.350;6.708;2022-11-15T08:15:27;12.10;99.90
11666;DHT22;5889;51.350;6.708;2022-11-15T08:17:54;12.10;99.90
11666;DHT22;5889;51.350;6.708;2022-11-15T08:20:23;12.20;99.90
11666;DHT22;5889;51.350;6.708;2022-11-15T08:22:50;12.10;99.90
11666;DHT22;5889;51.350;6.708;2022-11-15T08:25:17;12.10;99.90
11666;DHT22;5889;51.350;6.708;2022-11-15T08:27:44;12.10;99.90
11666;DHT22;5889;51.350;6.708;2022-11-15T08:30:12;12.20;99.90
11666;DHT22;5889;51.350;6.708;2022-11-15T08:32:39;12.20;99.90
11666;DHT22;5889;51.350;6.708;2022-11-15T08:35:07;12.20;99.90
11666;DHT22;5889;51.350;6.708;2022-11-15T08:37:35;12.30;99.90
11666;DHT22;5889;51.350;6.708;2022-11-15T08:40:03;12.30;99.90
11666;DHT22;5889;51.350;6.708;2022-11-15T08:42:30;12.40;99.90
11666;DHT22;5889;51.350;6.708;2022-11-15T08:44:57;12.40;99.90
11666;DHT22;5889;51.350;6.708;2022-11-15T08:47:24;12.50;99.90
11666;DHT22;5889;51.350;6.708;2022-11-15T08:49:52;12.50;99.90
11666;DHT22;5889;51.350;6.708;2022-11-15T08:52:19;12.60;99.90
11666;DHT22;5889;51.350;6.708;2022-11-15T08:54:47;12.60;99.90
11666;DHT22;5889;51.350;6.708;2022-11-15T08:57:14;12.60;99.90
11666;DHT22;5889;51.350;6.708;2022-11-15T08:59:41;12.70;99.90
11666;DHT22;5889;51.350;6.708;2022-11-15T09:02:11;12.70;99.90
11666;DHT22;5889;51.350;6.708;2022-11-15T09:04:40;12.80;99.90
11666;DHT22;5889;51.350;6.708;2022-11-15T09:07:08;12.90;99.90
11666;DHT22;5889;51.350;6.708;2022-11-15T09:09:35;13.00;99.90
11666;DHT22;5889;51.350;6.708;2022-11-15T09:12:04;13.10;99.90
11666;DHT22;5889;51.350;6.708;2022-11-15T09:14:31;13.20;99.90
11666;DHT22;5889;51.350;6.708;2022-11-15T09:16:59;13.30;99.90
11666;DHT22;5889;51.350;6.708;2022-11-15T09:19:26;13.40;99.90
11666;DHT22;5889;51.350;6.708;2022-11-15T09:21:53;13.50;99.90
11666;DHT22;5889;51.350;6.708;2022-11-15T09:24:20;13.60;99.90
11666;DHT22;5889;51.350;6.708;2022-11-15T09:26:49;13.60;99.90
11666;DHT22;5889;51.350;6.708;2022-11-15T09:29:18;13.60;99.90
11666;DHT22;5889;51.350;6.708;2022-11-15T09:31:45;13.50;99.90
11666;DHT22;5889;51.350;6.708;2022-11-15T09:34:12;13.50;99.90
11666;DHT22;5889;51.350;6.708;2022-11-15T09:36:39;13.60;99.90
11666;DHT22;5889;51.350;6.708;2022-11-15T09:39:06;13.60;99.90
11666;DHT22;5889;51.350;6.708;2022-11-15T09:41:47;13.60;99.90
11666;DHT22;5889;51.350;6.708;2022-11-15T09:44:31;13.60;99.90
11666;DHT22;5889;51.350;6.708;2022-11-15T09:47:10;13.70;99.90
11666;DHT22;5889;51.350;6.708;2022-11-15T09:49:43;13.70;99.90
11666;DHT22;5889;51.350;6.708;2022-11-15T09:52:10;13.70;99.90
11666;DHT22;5889;51.350;6.708;2022-11-15T09:54:39;13.70;99.90
11666;DHT22;5889;51.350;6.708;2022-11-15T09:57:11;13.70;99.90
11666;DHT22;5889;51.350;6.708;2022-11-15T09:59:54;13.70;99.90
11666;DHT22;5889;51.350;6.708;2022-11-15T10:02:43;13.70;99.90
11666;DHT22;5889;51.350;6.708;2022-11-15T10:05:22;13.80;99.90
11666;DHT22;5889;51.350;6.708;2022-11-15T10:07:54;13.70;99.90
11666;DHT22;5889;51.350;6.708;2022-11-15T10:10:29;13.80;99.90
11666;DHT22;5889;51.350;6.708;2022-11-15T10:12:57;13.80;99.90
11666;DHT22;5889;51.350;6.708;2022-11-15T10:15:26;13.80;99.90
11666;DHT22;5889;51.350;6.708;2022-11-15T10:18:07;13.80;99.90
11666;DHT22;5889;51.350;6.708;2022-11-15T10:20:46;13.80;99.90
11666;DHT22;5889;51.350;6.708;2022-11-15T10:23:15;13.80;99.90
11666;DHT22;5889;51.350;6.708;2022-11-15T10:25:43;13.80;99.90
11666;DHT22;5889;51.350;6.708;2022-11-15T10:28:15;13.80;99.90
11666;DHT22;5889;51.350;6.708;2022-11-15T10:30:45;13.90;99.90
11666;DHT22;5889;51.350;6.708;2022-11-15T10:33:25;13.90;99.90
11666;DHT22;5889;51.350;6.708;2022-11-15T10:36:15;13.90;99.90
11666;DHT22;5889;51.350;6.708;2022-11-15T10:39:01;14.00;99.90
11666;DHT22;5889;51.350;6.708;2022-11-15T10:41:32;14.00;99.90
11666;DHT22;5889;51.350;6.708;2022-11-15T10:44:19;14.00;99.90
11666;DHT22;5889;51.350;6.708;2022-11-15T10:47:04;14.00;99.90
11666;DHT22;5889;51.350;6.708;2022-11-15T10:49:33;14.10;99.90
11666;DHT22;5889;51.350;6.708;2022-11-15T10:52:04;14.00;99.90
11666;DHT22;5889;51.350;6.708;2022-11-15T10:54:42;14.10;99.90
11666;DHT22;5889;51.350;6.708;2022-11-15T10:57:14;14.10;99.90
11666;DHT22;5889;51.350;6.708;2022-11-15T10:59:45;14.20;99.90
11666;DHT22;5889;51.350;6.708;2022-11-15T11:02:29;14.20;99.90
11666;DHT22;5889;51.350;6.708;2022-11-15T11:04:57;14.20;99.90
11666;DHT22;5889;51.350;6.708;2022-11-15T11:07:26;14.20;99.90
11666;DHT22;5889;51.350;6.708;2022-11-15T11:10:01;14.20;99.90
11666;DHT22;5889;51.350;6.708;2022-11-15T11:12:30;14.20;99.90
11666;DHT22;5889;51.350;6.708;2022-11-15T11:14:59;14.20;99.90
11666;DHT22;5889;51.350;6.708;2022-11-15T11:17:35;14.20;99.90
11666;DHT22;5889;51.350;6.708;2022-11-15T11:20:10;14.20;99.90
11666;DHT22;5889;51.350;6.708;2022-11-15T11:22:53;14.30;99.90
11666;DHT22;5889;51.350;6.708;2022-11-15T11:25:29;14.30;99.90
11666;DHT22;5889;51.350;6.708;2022-11-15T11:28:05;14.30;99.90
11666;DHT22;5889;51.350;6.708;2022-11-15T11:30:47;14.40;99.90
11666;DHT22;5889;51.350;6.708;2022-11-15T11:33:21;14.30;99.90
11666;DHT22;5889;51.350;6.708;2022-11-15T11:36:03;14.30;99.90
11666;DHT22;5889;51.350;6.708;2022-11-15T11:38:42;14.30;99.90
11666;DHT22;5889;51.350;6.708;2022-11-15T11:41:15;14.30;99.90
11666;DHT22;5889;51.350;6.708;2022-11-15T11:43:53;14.20;99.90
11666;DHT22;5889;51.350;6.708;2022-11-15T11:46:31;14.20;99.90
11666;DHT22;5889;51.350;6.708;2022-11-15T11:49:08;14.20;99.90
11666;DHT22;5889;51.350;6.708;2022-11-15T11:51:39;14.20;99.90
11666;DHT22;5889;51.350;6.708;2022-11-15T11:54:12;14.20;99.90
11666;DHT22;5889;51.350;6.708;2022-11-15T11:56:44;14.20;99.90
11666;DHT22;5889;51.350;6.708;2022-11-15T11:59:17;14.30;99.90
11666;DHT22;5889;51.350;6.708;2022-11-15T12:01:45;14.30;99.90
11666;DHT22;5889;51.350;6.708;2022-11-15T12:04:19;14.30;99.90
11666;DHT22;5889;51.350;6.708;2022-11-15T12:06:50;14.40;99.90
11666;DHT22;5889;51.350;6.708;2022-11-15T12:09:22;14.30;99.90
11666;DHT22;5889;51.350;6.708;2022-11-15T12:11:59;14.40;99.90
11666;DHT22;5889;51.350;6.708;2022-11-15T12:14:32;14.40;99.80
11666;DHT22;5889;51.350;6.708;2022-11-15T12:17:00;14.40;99.80
11666;DHT22;5889;51.350;6.708;2022-11-15T12:19:28;14.40;99.80
11666;DHT22;5889;51.350;6.708;2022-11-15T12:22:02;14.50;99.80
11666;DHT22;5889;51.350;6.708;2022-11-15T12:24:34;14.50;99.90
11666;DHT22;5889;51.350;6.708;2022-11-15T12:27:06;14.50;99.90
11666;DHT22;5889;51.350;6.708;2022-11-15T12:29:38;14.50;99.60
11666;DHT22;5889;51.350;6.708;2022-11-15T12:32:17;14.50;99.70
11666;DHT22;5889;51.350;6.708;2022-11-15T12:34:48;14.50;99.40
11666;DHT22;5889;51.350;6.708;2022-11-15T12:40:32;14.60;98.90
11666;DHT22;5889;51.350;6.708;2022-11-15T12:43:02;14.60;98.90
11666;DHT22;5889;51.350;6.708;2022-11-15T12:45:31;14.60;99.10
11666;DHT22;5889;51.350;6.708;2022-11-15T12:51:15;14.70;99.00
11666;DHT22;5889;51.350;6.708;2022-11-15T12:53:42;14.80;99.10
11666;DHT22;5889;51.350;6.708;2022-11-15T12:56:21;14.80;99.30
11666;DHT22;5889;51.350;6.708;2022-11-15T12:58:52;14.90;99.30
11666;DHT22;5889;51.350;6.708;2022-11-15T13:04:35;14.90;99.40
11666;DHT22;5889;51.350;6.708;2022-11-15T13:07:05;14.90;99.30
11666;DHT22;5889;51.350;6.708;2022-11-15T13:09:54;14.90;99.30
11666;DHT22;5889;51.350;6.708;2022-11-15T13:12:54;14.90;99.60
11666;DHT22;5889;51.350;6.708;2022-11-15T13:15:43;14.90;99.60
11666;DHT22;5889;51.350;6.708;2022-11-15T13:18:34;14.90;99.50
11666;DHT22;5889;51.350;6.708;2022-11-15T13:21:03;14.80;99.90
11666;DHT22;5889;51.350;6.708;2022-11-15T13:23:55;14.80;99.80
11666;DHT22;5889;51.350;6.708;2022-11-15T13:26:22;14.80;99.90
11666;DHT22;5889;51.350;6.708;2022-11-15T13:28:51;14.80;99.90
11666;DHT22;5889;51.350;6.708;2022-11-15T13:31:26;14.90;99.90
11666;DHT22;5889;51.350;6.708;2022-11-15T13:33:56;14.90;99.90
11666;DHT22;5889;51.350;6.708;2022-11-15T13:36:25;14.90;99.90
11666;DHT22;5889;51.350;6.708;2022-11-15T13:38:59;14.90;99.90
11666;DHT22;5889;51.350;6.708;2022-11-15T13:41:28;14.90;99.90
11666;DHT22;5889;51.350;6.708;2022-11-15T13:43:56;15.00;99.90
11666;DHT22;5889;51.350;6.708;2022-11-15T13:46:25;15.00;99.90
11666;DHT22;5889;51.350;6.708;2022-11-15T13:48:54;15.00;99.90
11666;DHT22;5889;51.350;6.708;2022-11-15T13:51:27;15.10;99.90
11666;DHT22;5889;51.350;6.708;2022-11-15T13:53:58;15.20;99.90
11666;DHT22;5889;51.350;6.708;2022-11-15T13:56:29;15.10;99.90
11666;DHT22;5889;51.350;6.708;2022-11-15T13:58:57;15.20;99.90
11666;DHT22;5889;51.350;6.708;2022-11-15T14:01:26;15.20;99.90
11666;DHT22;5889;51.350;6.708;2022-11-15T14:03:58;15.10;99.90
11666;DHT22;5889;51.350;6.708;2022-11-15T14:06:28;15.10;99.90
11666;DHT22;5889;51.350;6.708;2022-11-15T14:11:52;15.00;99.90
11666;DHT22;5889;51.350;6.708;2022-11-15T14:14:21;15.10;99.90
11666;DHT22;5889;51.350;6.708;2022-11-15T14:16:50;15.10;99.90
11666;DHT22;5889;51.350;6.708;2022-11-15T14:19:38;15.10;99.90
11666;DHT22;5889;51.350;6.708;2022-11-15T14:22:13;15.10;99.90
11666;DHT22;5889;51.350;6.708;2022-11-15T14:24:43;15.00;99.90
11666;DHT22;5889;51.350;6.708;2022-11-15T14:27:24;15.00;99.90
11666;DHT22;5889;51.350;6.708;2022-11-15T14:29:51;14.90;99.90
11666;DHT22;5889;51.350;6.708;2022-11-15T14:32:20;14.90;99.90
11666;DHT22;5889;51.350;6.708;2022-11-15T14:34:47;14.80;99.90
11666;DHT22;5889;51.350;6.708;2022-11-15T14:37:20;14.70;99.90
11666;DHT22;5889;51.350;6.708;2022-11-15T14:39:50;14.70;99.90
11666;DHT22;5889;51.350;6.708;2022-11-15T14:42:18;14.60;99.90
11666;DHT22;5889;51.350;6.708;2022-11-15T14:44:45;14.60;99.90
11666;DHT22;5889;51.350;6.708;2022-11-15T14:47:12;14.50;99.90
11666;DHT22;5889;51.350;6.708;2022-11-15T14:49:39;14.50;99.90
11666;DHT22;5889;51.350;6.708;2022-11-15T14:52:24;14.50;99.90
11666;DHT22;5889;51.350;6.708;2022-11-15T14:54:55;14.50;99.90
11666;DHT22;5889;51.350;6.708;2022-11-15T14:57:23;14.50;99.90
11666;DHT22;5889;51.350;6.708;2022-11-15T14:59:51;14.50;99.90
11666;DHT22;5889;51.350;6.708;2022-11-15T15:02:20;14.50;99.90
11666;DHT22;5889;51.350;6.708;2022-11-15T15:04:48;14.50;99.90
11666;DHT22;5889;51.350;6.708;2022-11-15T15:07:15;14.50;99.90
11666;DHT22;5889;51.350;6.708;2022-11-15T15:09:43;14.50;99.90
11666;DHT22;5889;51.350;6.708;2022-11-15T15:12:15;14.40;99.90
11666;DHT22;5889;51.350;6.708;2022-11-15T15:14:43;14.40;99.90
11666;DHT22;5889;51.350;6.708;2022-11-15T15:17:10;14.40;99.90
11666;DHT22;5889;51.350;6.708;2022-11-15T15:19:37;14.40;99.90
11666;DHT22;5889;51.350;6.708;2022-11-15T15:22:04;14.40;99.90
11666;DHT22;5889;51.350;6.708;2022-11-15T15:24:31;14.30;99.90
11666;DHT22;5889;51.350;6.708;2022-11-15T15:26:58;14.30;99.90
11666;DHT22;5889;51.350;6.708;2022-11-15T15:29:26;14.30;99.90
11666;DHT22;5889;51.350;6.708;2022-11-15T15:31:53;14.20;99.90
11666;DHT22;5889;51.350;6.708;2022-11-15T15:34:20;14.20;99.90
11666;DHT22;5889;51.350;6.708;2022-11-15T15:36:47;14.20;99.90
11666;DHT22;5889;51.350;6.708;2022-11-15T15:39:14;14.20;99.90
11666;DHT22;5889;51.350;6.708;2022-11-15T15:41:41;14.20;99.90
11666;DHT22;5889;51.350;6.708;2022-11-15T15:44:08;14.10;99.90
11666;DHT22;5889;51.350;6.708;2022-11-15T15:46:36;14.10;99.90
11666;DHT22;5889;51.350;6.708;2022-11-15T15:49:03;14.10;99.90
11666;DHT22;5889;51.350;6.708;2022-11-15T15:51:30;14.10;99.90
11666;DHT22;5889;51.350;6.708;2022-11-15T15:53:57;14.00;99.90
11666;DHT22;5889;51.350;6.708;2022-11-15T15:56:24;14.00;99.90
11666;DHT22;5889;51.350;6.708;2022-11-15T15:58:51;14.00;99.90
11666;DHT22;5889;51.350;6.708;2022-11-15T16:01:19;14.00;99.90
11666;DHT22;5889;51.350;6.708;2022-11-15T16:03:47;14.00;99.90
11666;DHT22;5889;51.350;6.708;2022-11-15T16:06:35;14.00;99.90
11666;DHT22;5889;51.350;6.708;2022-11-15T16:09:02;14.00;99.90
11666;DHT22;5889;51.350;6.708;2022-11-15T16:11:30;14.00;99.90
11666;DHT22;5889;51.350;6.708;2022-11-15T16:13:57;14.00;99.90
11666;DHT22;5889;51.350;6.708;2022-11-15T16:16:23;14.00;99.90
11666;DHT22;5889;51.350;6.708;2022-11-15T16:18:52;14.00;99.90